createdAt,value
2023-02-08T00:01:25.296Z,7.10
2023-02-08T00:03:54.332Z,6.67
2023-02-08T00:06:22.911Z,7.33
2023-02-08T00:08:51.709Z,7.13
2023-02-08T00:11:21.347Z,6.80
2023-02-08T00:13:49.759Z,6.80
2023-02-08T00:16:18.499Z,6.23
2023-02-08T00:18:47.677Z,6.77
2023-02-08T00:21:18.268Z,6.77
2023-02-08T00:23:48.294Z,6.73
2023-02-08T00:26:18.203Z,7.73
2023-02-08T00:28:47.995Z,6.97
2023-02-08T00:31:16.337Z,6.60
2023-02-08T00:33:44.725Z,6.67
2023-02-08T00:36:14.308Z,6.93
2023-02-08T00:38:42.650Z,7.00
2023-02-08T00:41:11.613Z,5.73
2023-02-08T00:43:39.990Z,6.23
2023-02-08T00:46:09.738Z,5.97
2023-02-08T00:48:38.250Z,6.60
2023-02-08T00:51:08.847Z,6.50
2023-02-08T00:53:38.432Z,6.33
2023-02-08T00:56:07.971Z,6.63
2023-02-08T00:58:36.901Z,7.10
2023-02-08T01:01:06.332Z,6.67
2023-02-08T01:03:38.381Z,6.70
2023-02-08T01:06:10.309Z,6.63
2023-02-08T01:08:39.074Z,6.40
2023-02-08T01:11:09.480Z,6.07
2023-02-08T01:13:39.060Z,6.10
2023-02-08T01:16:09.275Z,6.13
2023-02-08T01:18:39.765Z,5.70
2023-02-08T01:21:10.614Z,6.17
2023-02-08T01:23:39.257Z,5.80
2023-02-08T01:26:08.060Z,6.00
2023-02-08T01:28:36.910Z,6.73
2023-02-08T01:31:07.243Z,7.20
2023-02-08T01:33:35.577Z,7.20
2023-02-08T01:36:08.035Z,7.83
2023-02-08T01:38:37.002Z,6.57
2023-02-08T01:41:06.445Z,6.60
2023-02-08T01:43:36.656Z,6.40
2023-02-08T01:46:05.229Z,6.83
2023-02-08T01:48:36.298Z,6.57
2023-02-08T01:51:10.816Z,6.93
2023-02-08T01:53:40.424Z,6.30
2023-02-08T01:56:18.657Z,6.50
2023-02-08T01:58:52.356Z,6.37
2023-02-08T02:01:20.712Z,5.70
2023-02-08T02:03:49.153Z,5.30
2023-02-08T02:06:26.043Z,5.57
2023-02-08T02:09:13.491Z,5.63
2023-02-08T02:11:42.095Z,6.03
2023-02-08T02:14:11.265Z,5.90
2023-02-08T02:16:39.631Z,5.73
2023-02-08T02:19:15.272Z,5.67
2023-02-08T02:21:58.897Z,5.23
2023-02-08T02:24:57.390Z,5.60
2023-02-08T02:27:40.712Z,5.33
2023-02-08T02:30:52.871Z,5.03
2023-02-08T02:33:44.345Z,5.20
2023-02-08T02:36:21.612Z,5.00
2023-02-08T02:39:04.013Z,5.27
2023-02-08T02:42:03.149Z,4.83
2023-02-08T02:44:38.737Z,4.83
2023-02-08T02:47:14.116Z,5.07
2023-02-08T02:49:52.083Z,5.00
2023-02-08T02:52:27.819Z,4.67
2023-02-08T02:54:59.528Z,4.67
2023-02-08T02:57:32.462Z,4.60
2023-02-08T03:00:02.092Z,4.70
2023-02-08T03:02:30.637Z,4.80
2023-02-08T03:05:00.418Z,4.50
2023-02-08T03:08:02.672Z,4.60
2023-02-08T03:10:43.158Z,4.80
2023-02-08T03:13:19.976Z,4.90
2023-02-08T03:15:58.520Z,4.40
2023-02-08T03:18:36.415Z,4.93
2023-02-08T03:21:13.480Z,4.83
2023-02-08T03:23:51.040Z,4.37
2023-02-08T03:26:24.323Z,4.93
2023-02-08T03:28:59.540Z,4.57
2023-02-08T03:31:33.913Z,4.80
2023-02-08T03:34:08.155Z,4.37
2023-02-08T03:36:43.611Z,4.63
2023-02-08T03:39:15.068Z,4.53
2023-02-08T03:41:47.672Z,4.83
2023-02-08T03:44:22.014Z,4.97
2023-02-08T03:46:54.184Z,4.57
2023-02-08T03:49:26.209Z,4.67
2023-02-08T03:52:00.630Z,4.37
2023-02-08T03:54:33.488Z,4.73
2023-02-08T03:57:07.962Z,4.77
2023-02-08T03:59:39.668Z,4.77
2023-02-08T04:02:12.115Z,5.13
2023-02-08T04:04:43.910Z,5.20
2023-02-08T04:07:13.887Z,5.10
2023-02-08T04:09:42.193Z,4.70
2023-02-08T04:12:10.824Z,4.73
2023-02-08T04:14:39.225Z,5.00
2023-02-08T04:17:07.495Z,5.00
2023-02-08T04:19:35.852Z,4.87
2023-02-08T04:22:04.236Z,5.00
2023-02-08T04:24:34.043Z,5.20
2023-02-08T04:27:04.433Z,5.53
2023-02-08T04:29:34.486Z,5.00
2023-02-08T04:32:03.809Z,4.70
2023-02-08T04:34:32.072Z,5.00
2023-02-08T04:37:00.370Z,5.40
2023-02-08T04:39:28.769Z,5.20
2023-02-08T04:41:58.578Z,5.10
2023-02-08T04:44:27.334Z,5.30
2023-02-08T04:46:55.732Z,5.07
2023-02-08T04:49:24.189Z,4.90
2023-02-08T04:51:52.596Z,4.70
2023-02-08T04:54:21.108Z,4.90
2023-02-08T04:56:49.833Z,4.60
2023-02-08T04:59:19.860Z,4.90
2023-02-08T05:01:48.550Z,4.70
2023-02-08T05:04:16.851Z,5.13
2023-02-08T05:06:48.072Z,5.07
2023-02-08T05:09:16.720Z,5.10
2023-02-08T05:11:45.029Z,4.60
2023-02-08T05:14:13.520Z,5.30
2023-02-08T05:16:43.215Z,5.00
2023-02-08T05:19:12.278Z,5.03
2023-02-08T05:21:40.754Z,5.33
2023-02-08T05:24:12.876Z,5.23
2023-02-08T05:26:41.594Z,5.27
2023-02-08T05:29:10.784Z,5.47
2023-02-08T05:31:39.155Z,4.73
2023-02-08T05:34:08.860Z,5.23
2023-02-08T05:36:37.188Z,5.63
2023-02-08T05:39:05.778Z,5.80
2023-02-08T05:41:34.117Z,5.00
2023-02-08T05:44:02.475Z,5.77
2023-02-08T05:46:30.873Z,5.50
2023-02-08T05:48:59.184Z,5.87
2023-02-08T05:51:28.897Z,5.30
2023-02-08T05:53:57.208Z,5.73
2023-02-08T05:56:25.610Z,5.97
2023-02-08T05:58:53.962Z,5.20
2023-02-08T06:01:24.553Z,5.40
2023-02-08T06:03:52.874Z,5.77
2023-02-08T06:06:21.331Z,5.23
2023-02-08T06:08:51.005Z,5.57
2023-02-08T06:11:20.205Z,5.83
2023-02-08T06:13:48.831Z,6.03
2023-02-08T06:16:19.959Z,5.93
2023-02-08T06:18:48.645Z,6.00
2023-02-08T06:21:16.848Z,6.30
2023-02-08T06:23:45.141Z,6.47
2023-02-08T06:26:14.953Z,8.27
2023-02-08T06:28:43.333Z,7.70
2023-02-08T06:31:11.777Z,7.17
2023-02-08T06:33:40.070Z,6.80
2023-02-08T06:36:09.044Z,6.30
2023-02-08T06:38:37.376Z,5.97
2023-02-08T06:41:05.847Z,6.00
2023-02-08T06:43:35.629Z,6.13
2023-02-08T06:46:05.104Z,6.00
2023-02-08T06:48:34.529Z,6.13
2023-02-08T06:51:03.059Z,6.83
2023-02-08T06:53:31.586Z,6.57
2023-02-08T06:55:59.962Z,7.47
2023-02-08T06:58:28.318Z,8.70
2023-02-08T07:00:58.054Z,8.67
2023-02-08T07:03:26.334Z,11.07
2023-02-08T07:06:04.551Z,13.47
2023-02-08T07:08:34.097Z,10.13
2023-02-08T07:11:07.196Z,11.47
2023-02-08T07:13:35.569Z,9.20
2023-02-08T07:16:05.486Z,9.53
2023-02-08T07:18:34.736Z,8.90
2023-02-08T07:21:03.129Z,7.50
2023-02-08T07:23:32.000Z,8.70
2023-02-08T07:26:01.469Z,8.13
2023-02-08T07:28:29.867Z,7.70
2023-02-08T07:30:58.951Z,7.30
2023-02-08T07:33:28.880Z,7.20
2023-02-08T07:35:57.381Z,7.33
2023-02-08T07:38:25.733Z,7.63
2023-02-08T07:40:54.070Z,7.40
2023-02-08T07:43:22.309Z,7.47
2023-02-08T07:45:50.641Z,6.77
2023-02-08T07:48:19.029Z,7.27
2023-02-08T07:50:48.788Z,9.77
2023-02-08T07:53:17.860Z,8.57
2023-02-08T07:55:48.075Z,9.00
2023-02-08T07:58:16.440Z,7.57
2023-02-08T08:00:44.804Z,7.63
2023-02-08T08:03:13.697Z,7.43
2023-02-08T08:05:43.071Z,6.73
2023-02-08T08:08:13.967Z,6.93
2023-02-08T08:10:42.718Z,6.60
2023-02-08T08:13:11.081Z,6.07
2023-02-08T08:15:39.838Z,6.30
2023-02-08T08:18:08.570Z,6.20
2023-02-08T08:20:37.265Z,6.00
2023-02-08T08:23:05.894Z,6.00
2023-02-08T08:25:35.770Z,6.37
2023-02-08T08:28:04.304Z,6.33
2023-02-08T08:30:32.711Z,6.50
2023-02-08T08:33:01.008Z,6.40
2023-02-08T08:35:29.596Z,7.20
2023-02-08T08:37:57.873Z,6.77
2023-02-08T08:40:26.172Z,5.93
2023-02-08T08:42:55.927Z,5.80
2023-02-08T08:45:24.241Z,6.03
2023-02-08T08:47:52.704Z,5.67
2023-02-08T08:50:21.612Z,5.73
2023-02-08T08:52:49.825Z,5.77
2023-02-08T08:55:18.936Z,5.53
2023-02-08T08:57:47.313Z,6.63
2023-02-08T09:00:18.116Z,7.30
2023-02-08T09:02:46.444Z,9.17
2023-02-08T09:05:14.814Z,7.33
2023-02-08T09:07:43.126Z,6.80
2023-02-08T09:10:11.437Z,6.60
2023-02-08T09:12:39.787Z,6.10
2023-02-08T09:15:08.943Z,6.10
2023-02-08T09:17:38.804Z,6.20
2023-02-08T09:20:08.540Z,7.27
2023-02-08T09:22:36.811Z,6.60
2023-02-08T09:25:07.766Z,6.83
2023-02-08T09:27:36.922Z,6.40
2023-02-08T09:30:06.092Z,5.90
2023-02-08T09:32:35.251Z,5.93
2023-02-08T09:35:05.904Z,6.87
2023-02-08T09:37:34.407Z,7.03
2023-02-08T09:40:02.727Z,5.97
2023-02-08T09:42:38.540Z,6.47
2023-02-08T09:45:36.823Z,6.60
2023-02-08T09:48:18.540Z,6.37
2023-02-08T09:50:52.632Z,6.97
2023-02-08T09:53:26.144Z,6.50
2023-02-08T09:56:01.512Z,7.00
2023-02-08T09:58:35.593Z,6.93
2023-02-08T10:01:06.067Z,7.20
2023-02-08T10:03:37.587Z,6.53
2023-02-08T10:06:09.011Z,6.20
2023-02-08T10:08:38.472Z,6.17
2023-02-08T10:11:24.417Z,6.20
2023-02-08T10:14:09.423Z,5.87
2023-02-08T10:16:51.806Z,5.90
2023-02-08T10:19:35.145Z,7.20
2023-02-08T10:22:18.140Z,7.73
2023-02-08T10:25:13.086Z,8.80
2023-02-08T10:27:50.046Z,7.03
2023-02-08T10:30:31.849Z,7.53
2023-02-08T10:33:06.259Z,6.33
2023-02-08T10:35:38.158Z,7.67
2023-02-08T10:38:34.454Z,8.23
2023-02-08T10:41:10.473Z,8.17
2023-02-08T10:43:47.257Z,8.93
2023-02-08T10:46:21.758Z,10.07
2023-02-08T10:49:03.787Z,8.43
2023-02-08T10:51:32.591Z,8.27
2023-02-08T10:54:02.386Z,12.47
2023-02-08T10:56:44.405Z,10.90
2023-02-08T10:59:20.073Z,9.70
2023-02-08T11:01:49.833Z,7.97
2023-02-08T11:04:19.242Z,8.07
2023-02-08T11:06:49.286Z,8.47
2023-02-08T11:09:30.244Z,8.67
2023-02-08T11:12:01.504Z,8.43
2023-02-08T11:14:45.342Z,8.33
2023-02-08T11:17:28.739Z,7.67
2023-02-08T11:19:57.725Z,7.37
2023-02-08T11:22:29.005Z,7.63
2023-02-08T11:25:00.890Z,9.35
2023-02-08T11:27:34.960Z,9.00
2023-02-08T11:30:23.506Z,8.67
2023-02-08T11:33:19.631Z,8.53
2023-02-08T11:36:07.274Z,9.07
2023-02-08T11:38:37.892Z,8.87
2023-02-08T11:41:16.764Z,8.97
2023-02-08T11:43:51.072Z,9.67
2023-02-08T11:46:24.628Z,9.50
2023-02-08T11:48:55.183Z,8.07
2023-02-08T11:51:29.832Z,7.87
2023-02-08T11:54:00.522Z,8.10
2023-02-08T11:56:32.392Z,8.32
2023-02-08T11:59:07.758Z,7.63
2023-02-08T12:01:37.703Z,7.95
2023-02-08T12:04:08.750Z,8.25
2023-02-08T12:07:17.464Z,8.43
2023-02-08T12:10:18.154Z,7.40
2023-02-08T12:13:03.371Z,10.35
2023-02-08T12:15:57.506Z,9.82
2023-02-08T12:18:52.667Z,9.02
2023-02-08T12:21:23.988Z,8.20
2023-02-08T12:23:55.853Z,8.05
2023-02-08T12:26:55.876Z,8.07
2023-02-08T12:29:46.906Z,7.35
2023-02-08T12:32:31.210Z,6.18
2023-02-08T12:35:33.210Z,6.28
2023-02-08T12:38:32.742Z,6.53
2023-02-08T12:41:09.932Z,7.38
2023-02-08T12:43:48.460Z,7.38
2023-02-08T12:46:23.874Z,6.88
2023-02-08T12:49:12.103Z,6.65
2023-02-08T12:51:51.546Z,6.55
2023-02-08T12:54:30.733Z,7.10
2023-02-08T12:57:02.615Z,7.40
2023-02-08T12:59:36.627Z,7.85
2023-02-08T13:02:16.379Z,8.10
2023-02-08T13:04:47.952Z,9.02
2023-02-08T13:07:20.982Z,8.85
2023-02-08T13:09:58.278Z,7.85
2023-02-08T13:12:30.704Z,6.80
2023-02-08T13:15:06.018Z,6.72
2023-02-08T13:17:44.801Z,6.78
2023-02-08T13:20:30.962Z,6.35
2023-02-08T13:23:04.526Z,6.40
2023-02-08T13:25:36.058Z,7.00
2023-02-08T13:28:06.763Z,6.70
2023-02-08T13:30:39.942Z,6.53
2023-02-08T13:33:17.680Z,7.00
2023-02-08T13:35:51.582Z,6.85
2023-02-08T13:38:27.126Z,6.75
2023-02-08T13:41:17.747Z,6.65
2023-02-08T13:43:52.533Z,6.93
2023-02-08T13:46:23.026Z,6.72
2023-02-08T13:48:57.888Z,6.47
2023-02-08T13:51:54.843Z,8.07
2023-02-08T13:54:23.409Z,7.43
2023-02-08T13:56:53.395Z,6.97
2023-02-08T13:59:37.920Z,8.32
2023-02-08T14:02:30.673Z,7.40
2023-02-08T14:05:43.077Z,8.88
2023-02-08T14:08:22.303Z,10.17
2023-02-08T14:11:03.990Z,10.60
2023-02-08T14:13:36.839Z,9.65
2023-02-08T14:16:28.536Z,8.00
2023-02-08T14:18:59.597Z,7.63
2023-02-08T14:21:46.444Z,8.47
2023-02-08T14:24:23.597Z,12.43
2023-02-08T14:26:52.925Z,10.77
2023-02-08T14:29:27.235Z,10.07
2023-02-08T14:31:55.903Z,9.13
2023-02-08T14:34:34.436Z,8.60
2023-02-08T14:37:07.751Z,9.87
2023-02-08T14:39:37.482Z,8.60
2023-02-08T14:42:08.958Z,9.43
2023-02-08T14:44:49.064Z,11.57
2023-02-08T14:47:53.519Z,11.37
2023-02-08T14:50:28.112Z,8.93
2023-02-08T14:53:06.567Z,9.13
2023-02-08T14:55:42.319Z,9.47
2023-02-08T14:58:15.499Z,11.40
2023-02-08T15:00:45.714Z,10.40
2023-02-08T15:03:18.162Z,8.67
2023-02-08T15:06:04.606Z,9.63
2023-02-08T15:08:34.429Z,10.97
2023-02-08T15:11:03.256Z,12.07
2023-02-08T15:13:32.535Z,11.70
2023-02-08T15:16:01.679Z,9.73
2023-02-08T15:18:32.035Z,11.33
2023-02-08T15:21:04.152Z,10.43
2023-02-08T15:23:34.442Z,10.03
2023-02-08T15:26:04.956Z,10.90
2023-02-08T15:28:36.680Z,16.93
2023-02-08T15:31:07.525Z,15.40
2023-02-08T15:33:39.374Z,12.17
2023-02-08T15:36:09.983Z,11.77
2023-02-08T15:38:40.586Z,12.00
2023-02-08T15:41:11.391Z,12.33
2023-02-08T15:43:41.809Z,11.60
2023-02-08T15:46:20.008Z,12.57
2023-02-08T15:48:49.897Z,13.43
2023-02-08T15:51:20.274Z,14.57
2023-02-08T15:53:53.658Z,14.37
2023-02-08T15:56:36.770Z,14.00
2023-02-08T15:59:08.082Z,12.60
2023-02-08T16:01:36.803Z,12.47
2023-02-08T16:04:12.406Z,11.63
2023-02-08T16:06:46.564Z,12.03
2023-02-08T16:09:20.154Z,13.00
2023-02-08T16:11:50.563Z,13.80
2023-02-08T16:14:24.794Z,15.50
2023-02-08T16:16:57.830Z,13.87
2023-02-08T16:19:28.572Z,19.23
2023-02-08T16:21:58.916Z,29.50
2023-02-08T16:24:29.543Z,20.73
2023-02-08T16:27:02.171Z,16.70
2023-02-08T16:29:32.965Z,15.77
2023-02-08T16:32:04.303Z,16.23
2023-02-08T16:34:35.085Z,19.73
2023-02-08T16:37:05.336Z,19.33
2023-02-08T16:39:42.467Z,20.60
2023-02-08T16:42:28.442Z,25.53
2023-02-08T16:45:26.965Z,25.20
2023-02-08T16:48:00.200Z,17.43
2023-02-08T16:50:35.261Z,15.53
2023-02-08T16:53:05.253Z,13.73
2023-02-08T16:55:38.279Z,12.67
2023-02-08T16:58:10.925Z,13.80
2023-02-08T17:00:39.365Z,13.87
2023-02-08T17:03:08.068Z,13.87
2023-02-08T17:05:39.367Z,13.90
2023-02-08T17:08:17.866Z,13.37
2023-02-08T17:10:52.052Z,13.33
2023-02-08T17:13:21.525Z,14.17
2023-02-08T17:15:51.631Z,17.50
2023-02-08T17:18:20.115Z,22.30
2023-02-08T17:20:49.013Z,22.40
2023-02-08T17:23:17.538Z,18.23
2023-02-08T17:25:47.756Z,16.03
2023-02-08T17:28:18.486Z,14.57
2023-02-08T17:30:48.093Z,18.13
2023-02-08T17:33:19.005Z,21.23
2023-02-08T17:35:50.893Z,24.67
2023-02-08T17:38:20.278Z,22.03
2023-02-08T17:40:50.231Z,21.40
2023-02-08T17:43:19.097Z,22.50
2023-02-08T17:45:47.694Z,24.57
2023-02-08T17:48:16.455Z,26.90
2023-02-08T17:50:48.017Z,25.30
2023-02-08T17:53:16.413Z,21.57
2023-02-08T17:55:45.488Z,21.23
2023-02-08T17:58:15.603Z,24.07
2023-02-08T18:00:44.151Z,27.43
2023-02-08T18:03:12.630Z,21.90
2023-02-08T18:05:41.247Z,18.70
2023-02-08T18:08:09.631Z,20.83
2023-02-08T18:10:38.063Z,19.93
2023-02-08T18:13:06.448Z,22.87
2023-02-08T18:15:36.273Z,24.07
2023-02-08T18:18:04.869Z,26.10
2023-02-08T18:20:33.184Z,19.40
2023-02-08T18:23:01.567Z,17.90
2023-02-08T18:25:30.051Z,15.30
2023-02-08T18:27:58.393Z,13.80
2023-02-08T18:30:28.086Z,13.47
2023-02-08T18:32:57.877Z,13.90
2023-02-08T18:35:26.185Z,16.13
2023-02-08T18:37:54.449Z,15.67
2023-02-08T18:40:23.126Z,14.70
2023-02-08T18:42:51.698Z,14.53
2023-02-08T18:45:21.417Z,14.33
2023-02-08T18:47:49.750Z,13.80
2023-02-08T18:50:20.297Z,12.93
2023-02-08T18:52:48.559Z,15.50
2023-02-08T18:55:17.768Z,15.53
2023-02-08T18:57:48.171Z,13.57
2023-02-08T19:00:18.024Z,13.83
2023-02-08T19:02:46.699Z,12.70
2023-02-08T19:05:15.030Z,12.37
2023-02-08T19:07:44.894Z,13.60
2023-02-08T19:10:13.253Z,12.13
2023-02-08T19:12:41.766Z,11.67
2023-02-08T19:15:10.757Z,12.87
2023-02-08T19:17:39.165Z,14.37
2023-02-08T19:20:08.853Z,10.57
2023-02-08T19:22:37.104Z,9.73
2023-02-08T19:25:08.641Z,10.23
2023-02-08T19:27:37.355Z,11.57
2023-02-08T19:30:09.207Z,10.93
2023-02-08T19:32:38.009Z,14.07
2023-02-08T19:35:07.914Z,14.13
2023-02-08T19:37:37.487Z,11.13
2023-02-08T19:40:11.565Z,12.20
2023-02-08T19:42:39.903Z,12.97
2023-02-08T19:45:09.557Z,11.93
2023-02-08T19:47:50.715Z,12.63
2023-02-08T19:50:20.960Z,11.43
2023-02-08T19:52:49.290Z,11.13
2023-02-08T19:55:20.028Z,10.23
2023-02-08T19:57:48.447Z,10.50
2023-02-08T20:00:23.817Z,9.87
2023-02-08T20:02:52.709Z,10.67
2023-02-08T20:05:21.376Z,13.77
2023-02-08T20:07:49.820Z,9.30
2023-02-08T20:10:20.375Z,9.30
2023-02-08T20:12:49.302Z,10.23
2023-02-08T20:15:17.941Z,8.80
2023-02-08T20:17:46.272Z,9.70
2023-02-08T20:20:15.029Z,9.97
2023-02-08T20:22:43.297Z,9.60
2023-02-08T20:25:12.262Z,9.83
2023-02-08T20:27:42.598Z,10.23
2023-02-08T20:30:12.145Z,9.70
2023-02-08T20:32:41.084Z,9.77
2023-02-08T20:35:10.236Z,10.13
2023-02-08T20:37:39.248Z,9.40
2023-02-08T20:40:10.548Z,8.60
2023-02-08T20:42:39.085Z,8.33
2023-02-08T20:45:11.425Z,8.57
2023-02-08T20:47:46.427Z,8.57
2023-02-08T20:50:19.035Z,8.20
2023-02-08T20:52:49.223Z,8.60
2023-02-08T20:55:18.578Z,8.27
2023-02-08T20:57:46.995Z,8.47
2023-02-08T21:00:17.754Z,8.50
2023-02-08T21:02:46.522Z,9.43
2023-02-08T21:05:15.329Z,9.70
2023-02-08T21:07:43.813Z,8.87
2023-02-08T21:10:14.759Z,8.53
2023-02-08T21:12:43.399Z,8.37
2023-02-08T21:15:12.117Z,9.10
2023-02-08T21:17:42.623Z,8.37
2023-02-08T21:20:13.073Z,8.73
2023-02-08T21:22:41.983Z,8.90
2023-02-08T21:25:11.556Z,10.90
2023-02-08T21:27:40.405Z,9.83
2023-02-08T21:30:10.202Z,9.23
2023-02-08T21:32:38.478Z,9.17
2023-02-08T21:35:09.093Z,9.00
2023-02-08T21:37:38.246Z,9.00
2023-02-08T21:40:08.285Z,9.23
2023-02-08T21:42:37.043Z,9.57
2023-02-08T21:45:09.036Z,9.20
2023-02-08T21:47:39.016Z,10.57
2023-02-08T21:50:40.948Z,10.67
2023-02-08T21:53:28.877Z,9.90
2023-02-08T21:55:57.374Z,9.73
2023-02-08T21:58:25.996Z,9.10
2023-02-08T22:00:54.389Z,9.50
2023-02-08T22:03:23.000Z,9.07
2023-02-08T22:05:52.747Z,9.43
2023-02-08T22:08:21.099Z,12.10
2023-02-08T22:10:57.804Z,11.70
2023-02-08T22:13:26.557Z,9.70
2023-02-08T22:15:54.914Z,9.07
2023-02-08T22:18:23.398Z,8.67
2023-02-08T22:20:54.878Z,8.47
2023-02-08T22:23:23.496Z,9.70
2023-02-08T22:25:51.836Z,11.57
2023-02-08T22:28:20.257Z,10.07
2023-02-08T22:30:49.597Z,17.17
2023-02-08T22:33:18.043Z,12.60
2023-02-08T22:35:46.373Z,13.70
2023-02-08T22:38:16.904Z,21.53
2023-02-08T22:40:45.992Z,29.40
2023-02-08T22:43:14.859Z,40.80
2023-02-08T22:45:43.655Z,17.37
2023-02-08T22:48:12.303Z,12.60
2023-02-08T22:50:40.797Z,28.83
2023-02-08T22:53:09.267Z,13.77
2023-02-08T22:55:39.100Z,9.67
2023-02-08T22:58:07.377Z,9.50
2023-02-08T23:00:35.719Z,9.47
2023-02-08T23:03:05.767Z,9.43
2023-02-08T23:05:34.461Z,10.00
2023-02-08T23:08:02.728Z,9.30
2023-02-08T23:10:31.394Z,13.40
2023-02-08T23:13:54.644Z,10.77
2023-02-08T23:16:24.674Z,12.33
2023-02-08T23:18:53.282Z,15.80
2023-02-08T23:21:22.523Z,17.50
2023-02-08T23:23:51.106Z,11.90
2023-02-08T23:27:14.589Z,10.97
2023-02-08T23:29:42.933Z,10.40
2023-02-08T23:32:12.778Z,10.17
2023-02-08T23:34:41.211Z,9.67
2023-02-08T23:37:09.504Z,9.50
2023-02-08T23:39:37.801Z,9.30
2023-02-08T23:42:06.365Z,8.63
2023-02-08T23:44:34.655Z,9.67
2023-02-08T23:47:03.147Z,9.03
2023-02-08T23:49:32.863Z,8.50
2023-02-08T23:52:01.196Z,8.17
2023-02-08T23:54:29.626Z,8.80
2023-02-08T23:56:58.669Z,9.70
2023-02-08T23:59:27.239Z,8.67
